createdAt,value
2019-05-17T00:01:22.779Z,6.30
2019-05-17T00:03:53.763Z,6.43
2019-05-17T00:06:27.373Z,6.80
2019-05-17T00:08:57.749Z,5.80
2019-05-17T00:11:28.858Z,7.03
2019-05-17T00:13:59.843Z,6.07
2019-05-17T00:16:31.718Z,6.67
2019-05-17T00:19:02.734Z,6.93
2019-05-17T00:21:33.935Z,6.27
2019-05-17T00:24:06.663Z,6.73
2019-05-17T00:26:39.762Z,6.43
2019-05-17T00:29:11.458Z,7.10
2019-05-17T00:31:42.651Z,7.13
2019-05-17T00:34:13.976Z,8.30
2019-05-17T00:36:46.901Z,8.47
2019-05-17T00:39:17.779Z,9.23
2019-05-17T00:41:49.166Z,9.47
2019-05-17T00:44:20.190Z,9.50
2019-05-17T00:46:51.194Z,10.67
2019-05-17T00:49:22.236Z,10.37
2019-05-17T00:51:53.172Z,11.90
2019-05-17T00:54:26.777Z,10.70
2019-05-17T00:56:57.224Z,10.73
2019-05-17T00:59:28.191Z,11.67
2019-05-17T01:01:59.268Z,12.67
2019-05-17T01:04:30.207Z,13.10
2019-05-17T01:07:01.238Z,13.80
2019-05-17T01:09:32.233Z,14.17
2019-05-17T01:12:03.533Z,14.53
2019-05-17T01:14:34.527Z,14.10
2019-05-17T01:17:07.244Z,14.27
2019-05-17T01:19:39.602Z,14.40
2019-05-17T01:22:10.993Z,14.30
2019-05-17T01:24:42.748Z,14.93
2019-05-17T01:27:14.209Z,15.40
2019-05-17T01:29:46.595Z,14.80
2019-05-17T01:32:17.914Z,14.20
2019-05-17T01:34:48.833Z,15.67
2019-05-17T01:37:19.772Z,15.83
2019-05-17T01:39:50.733Z,15.70
2019-05-17T01:42:21.739Z,15.43
2019-05-17T01:44:53.386Z,16.20
2019-05-17T01:47:27.103Z,15.83
2019-05-17T01:49:57.762Z,15.43
2019-05-17T01:52:29.097Z,16.30
2019-05-17T01:55:00.056Z,15.70
2019-05-17T01:57:31.329Z,16.63
2019-05-17T02:00:06.404Z,18.47
2019-05-17T02:02:40.446Z,16.40
2019-05-17T02:05:12.317Z,16.57
2019-05-17T02:07:43.333Z,17.60
2019-05-17T02:10:16.782Z,17.60
2019-05-17T02:12:49.119Z,18.53
2019-05-17T02:15:20.646Z,18.63
2019-05-17T02:27:41.906Z,19.00
2019-05-17T02:30:13.995Z,19.97
2019-05-17T02:32:45.773Z,18.77
2019-05-17T02:35:16.976Z,19.40
2019-05-17T02:37:48.336Z,20.23
2019-05-17T02:40:22.660Z,19.50
2019-05-17T02:42:53.543Z,19.93
2019-05-17T02:45:25.406Z,20.20
2019-05-17T02:47:56.528Z,20.00
2019-05-17T02:50:27.623Z,20.77
2019-05-17T02:52:58.936Z,20.97
2019-05-17T02:55:32.390Z,20.33
2019-05-17T02:58:03.663Z,19.87
2019-05-17T03:00:34.774Z,20.10
2019-05-17T03:03:06.043Z,21.37
2019-05-17T03:05:37.112Z,19.87
2019-05-17T03:08:08.086Z,20.80
2019-05-17T03:10:39.075Z,21.80
2019-05-17T03:13:12.817Z,22.57
2019-05-17T03:15:43.925Z,22.20
2019-05-17T03:18:15.226Z,23.00
2019-05-17T03:20:48.012Z,22.43
2019-05-17T03:23:23.206Z,23.47
2019-05-17T03:25:52.738Z,24.00
2019-05-17T03:28:24.330Z,25.20
2019-05-17T03:30:57.098Z,25.30
2019-05-17T03:33:35.142Z,25.13
2019-05-17T03:36:06.579Z,25.87
2019-05-17T03:38:35.159Z,25.00
2019-05-17T03:41:18.191Z,25.60
2019-05-17T03:43:44.086Z,26.60
2019-05-17T03:46:14.123Z,26.47
2019-05-17T03:48:45.416Z,26.37
2019-05-17T03:51:16.507Z,29.00
2019-05-17T03:53:47.545Z,27.73
2019-05-17T03:56:18.508Z,27.53
2019-05-17T03:58:52.792Z,28.73
2019-05-17T04:01:23.440Z,29.43
2019-05-17T04:03:54.541Z,27.50
2019-05-17T04:06:25.548Z,29.90
2019-05-17T04:08:56.661Z,28.80
2019-05-17T04:11:32.855Z,29.43
2019-05-17T04:14:02.969Z,30.47
2019-05-17T04:16:34.133Z,29.17
2019-05-17T04:19:05.588Z,30.73
2019-05-17T04:21:36.657Z,29.57
2019-05-17T04:24:07.697Z,29.40
2019-05-17T04:26:38.711Z,29.90
2019-05-17T04:29:13.238Z,28.30
2019-05-17T04:31:43.639Z,29.77
2019-05-17T04:34:15.929Z,30.03
2019-05-17T04:36:47.044Z,28.50
2019-05-17T04:39:18.169Z,27.87
2019-05-17T04:41:53.844Z,28.67
2019-05-17T04:44:23.254Z,26.23
2019-05-17T04:46:54.709Z,26.13
2019-05-17T04:49:26.939Z,26.47
2019-05-17T04:51:58.362Z,26.27
2019-05-17T04:54:29.359Z,25.90
2019-05-17T04:57:02.671Z,26.80
2019-05-17T04:59:33.971Z,25.33
2019-05-17T05:02:05.176Z,25.80
2019-05-17T05:04:38.589Z,26.20
2019-05-17T05:07:09.530Z,27.27
2019-05-17T05:09:42.981Z,31.97
2019-05-17T05:12:13.599Z,28.00
2019-05-17T05:14:45.020Z,25.07
2019-05-17T05:17:16.267Z,26.80
2019-05-17T05:19:47.687Z,27.23
2019-05-17T05:22:18.649Z,26.27
2019-05-17T05:24:49.687Z,27.27
2019-05-17T05:27:22.287Z,30.13
2019-05-17T05:29:53.830Z,28.47
2019-05-17T05:32:25.045Z,28.20
2019-05-17T05:34:57.412Z,28.43
2019-05-17T05:37:28.416Z,26.83
2019-05-17T05:40:02.109Z,26.47
2019-05-17T05:42:32.470Z,26.40
2019-05-17T05:45:03.790Z,27.77
2019-05-17T05:47:35.158Z,27.30
2019-05-17T05:50:07.410Z,27.00
2019-05-17T05:52:38.427Z,28.47
2019-05-17T05:55:12.176Z,27.40
2019-05-17T05:57:43.674Z,27.73
2019-05-17T06:00:15.966Z,28.87
2019-05-17T06:02:46.983Z,29.23
2019-05-17T06:05:18.202Z,28.00
2019-05-17T06:07:49.315Z,29.57
2019-05-17T06:10:21.884Z,28.70
2019-05-17T06:12:52.967Z,28.10
2019-05-17T06:15:24.017Z,28.57
2019-05-17T06:17:55.103Z,27.73
2019-05-17T06:20:26.102Z,29.27
2019-05-17T06:22:57.774Z,28.80
2019-05-17T06:25:29.424Z,29.03
2019-05-17T06:28:01.619Z,28.77
2019-05-17T06:30:33.231Z,28.00
2019-05-17T06:33:04.255Z,28.70
2019-05-17T06:35:35.327Z,29.70
2019-05-17T06:38:06.446Z,29.13
2019-05-17T06:40:37.868Z,29.20
2019-05-17T06:43:08.995Z,27.87
2019-05-17T06:45:41.844Z,29.00
2019-05-17T06:48:13.261Z,28.60
2019-05-17T06:50:44.299Z,29.40
2019-05-17T06:53:16.426Z,30.70
2019-05-17T06:55:47.816Z,30.70
2019-05-17T06:58:19.127Z,29.23
2019-05-17T07:00:50.502Z,29.77
2019-05-17T07:03:21.503Z,31.53
2019-05-17T07:05:54.818Z,30.67
2019-05-17T07:08:25.894Z,29.00
2019-05-17T07:10:56.902Z,31.60
2019-05-17T07:13:30.148Z,30.20
2019-05-17T07:16:01.222Z,30.60
2019-05-17T07:18:32.918Z,30.70
2019-05-17T07:21:04.021Z,31.13
2019-05-17T07:23:35.256Z,29.03
2019-05-17T07:26:09.074Z,31.00
2019-05-17T07:28:42.184Z,29.40
2019-05-17T07:31:13.142Z,30.47
2019-05-17T07:33:44.162Z,28.30
2019-05-17T07:36:15.408Z,28.50
2019-05-17T07:38:46.456Z,27.17
2019-05-17T07:41:17.539Z,28.57
2019-05-17T07:43:49.759Z,27.70
2019-05-17T07:46:21.074Z,25.77
2019-05-17T07:48:52.477Z,26.60
2019-05-17T07:51:23.790Z,28.37
2019-05-17T07:53:54.911Z,28.30
2019-05-17T07:56:26.190Z,27.23
2019-05-17T07:58:57.428Z,27.93
2019-05-17T08:01:29.644Z,28.03
2019-05-17T08:04:00.945Z,28.43
2019-05-17T08:06:32.000Z,26.60
2019-05-17T08:09:04.570Z,26.13
2019-05-17T08:11:35.567Z,25.87
2019-05-17T08:14:06.584Z,23.43
2019-05-17T08:16:39.465Z,22.57
2019-05-17T08:19:11.587Z,22.40
2019-05-17T08:21:42.598Z,22.73
2019-05-17T08:24:13.877Z,23.23
2019-05-17T08:26:45.299Z,25.10
2019-05-17T08:29:16.304Z,24.17
2019-05-17T08:31:49.607Z,24.03
2019-05-17T08:34:20.412Z,24.93
2019-05-17T08:36:51.422Z,23.23
2019-05-17T08:39:23.252Z,24.10
2019-05-17T08:42:06.525Z,21.50
2019-05-17T08:44:39.359Z,19.97
2019-05-17T08:47:10.338Z,20.87
2019-05-17T08:49:41.358Z,21.40
2019-05-17T08:52:12.366Z,20.60
2019-05-17T08:54:43.424Z,19.53
2019-05-17T08:57:14.732Z,21.53
2019-05-17T08:59:45.786Z,20.87
2019-05-17T09:02:19.874Z,20.53
2019-05-17T09:04:51.060Z,20.10
2019-05-17T09:07:22.746Z,20.63
2019-05-17T09:09:54.530Z,19.23
2019-05-17T09:12:25.658Z,18.83
2019-05-17T09:14:56.939Z,18.67
2019-05-17T09:17:30.001Z,18.40
2019-05-17T09:20:01.052Z,19.47
2019-05-17T09:22:32.138Z,17.30
2019-05-17T09:25:03.279Z,18.87
2019-05-17T09:27:34.986Z,18.73
2019-05-17T09:30:09.333Z,20.00
2019-05-17T09:32:40.398Z,18.50
2019-05-17T09:35:11.868Z,18.17
2019-05-17T09:37:43.045Z,18.63
2019-05-17T09:40:14.371Z,17.37
2019-05-17T09:42:45.381Z,17.67
2019-05-17T09:45:16.367Z,17.83
2019-05-17T09:47:50.336Z,16.60
2019-05-17T09:50:20.670Z,16.00
2019-05-17T09:52:52.047Z,16.67
2019-05-17T09:55:23.397Z,14.30
2019-05-17T09:57:54.417Z,14.97
2019-05-17T10:00:25.543Z,14.97
2019-05-17T10:02:56.867Z,13.87
2019-05-17T10:05:31.019Z,13.33
2019-05-17T10:08:00.678Z,13.57
2019-05-17T10:10:31.727Z,13.13
2019-05-17T10:13:02.793Z,13.50
2019-05-17T10:15:33.948Z,14.07
2019-05-17T10:18:04.963Z,13.47
2019-05-17T10:20:36.314Z,13.50
2019-05-17T10:23:10.182Z,12.23
2019-05-17T10:25:40.539Z,12.77
2019-05-17T10:28:11.908Z,11.60
2019-05-17T10:30:43.029Z,11.07
2019-05-17T10:33:14.111Z,9.83
2019-05-17T10:35:45.822Z,11.40
2019-05-17T10:38:19.339Z,10.83
2019-05-17T10:40:50.084Z,11.20
2019-05-17T10:43:21.620Z,12.03
2019-05-17T10:45:52.916Z,11.13
2019-05-17T10:48:23.944Z,10.77
2019-05-17T10:50:55.350Z,11.23
2019-05-17T10:53:26.803Z,11.90
2019-05-17T10:56:00.722Z,11.07
2019-05-17T10:58:33.099Z,12.00
2019-05-17T11:01:04.165Z,12.00
2019-05-17T11:03:35.488Z,11.90
2019-05-17T11:06:06.535Z,12.13
2019-05-17T11:08:37.579Z,12.00
2019-05-17T11:11:10.177Z,13.30
2019-05-17T11:13:41.382Z,13.23
2019-05-17T11:16:13.532Z,12.77
2019-05-17T11:18:44.621Z,12.80
2019-05-17T11:21:16.050Z,10.17
2019-05-17T11:23:47.100Z,10.70
2019-05-17T11:26:18.146Z,12.37
2019-05-17T11:28:49.199Z,9.27
2019-05-17T11:31:20.206Z,9.57
2019-05-17T11:33:51.477Z,7.90
2019-05-17T11:36:22.519Z,6.50
2019-05-17T11:38:53.596Z,6.63
2019-05-17T11:41:24.610Z,6.90
2019-05-17T11:43:55.659Z,6.53
2019-05-17T11:46:35.962Z,8.20
2019-05-17T11:48:59.602Z,8.90
2019-05-17T11:51:30.969Z,10.72
2019-05-17T11:54:02.072Z,10.07
2019-05-17T11:56:33.059Z,11.73
2019-05-17T11:59:05.160Z,10.90
2019-05-17T12:01:36.870Z,11.50
2019-05-17T12:04:07.938Z,11.23
2019-05-17T12:06:39.377Z,10.73
2019-05-17T12:09:11.496Z,11.23
2019-05-17T12:11:42.508Z,11.23
2019-05-17T12:14:13.559Z,10.70
2019-05-17T12:16:44.842Z,10.53
2019-05-17T12:19:16.210Z,11.47
2019-05-17T12:21:47.315Z,10.83
2019-05-17T12:24:18.379Z,10.80
2019-05-17T12:26:49.447Z,10.73
2019-05-17T12:29:20.845Z,9.10
2019-05-17T12:31:51.861Z,9.27
2019-05-17T12:34:22.815Z,8.53
2019-05-17T12:36:53.770Z,8.10
2019-05-17T12:39:24.869Z,8.37
2019-05-17T12:41:56.035Z,8.57
2019-05-17T12:44:27.169Z,10.90
2019-05-17T12:46:58.251Z,11.93
2019-05-17T12:49:30.622Z,11.70
2019-05-17T12:52:02.341Z,12.82
2019-05-17T12:54:33.418Z,11.57
2019-05-17T12:57:04.986Z,12.07
2019-05-17T12:59:36.540Z,12.60
2019-05-17T13:02:11.964Z,12.37
2019-05-17T13:04:41.579Z,12.03
2019-05-17T13:07:12.574Z,12.27
2019-05-17T13:09:44.293Z,12.93
2019-05-17T13:12:15.332Z,13.63
2019-05-17T13:14:46.470Z,12.60
2019-05-17T13:17:17.785Z,11.63
2019-05-17T13:19:48.860Z,11.93
2019-05-17T13:22:20.092Z,11.93
2019-05-17T13:24:51.588Z,12.20
2019-05-17T13:27:22.626Z,12.90
2019-05-17T13:29:53.707Z,13.20
2019-05-17T13:32:25.226Z,12.90
2019-05-17T13:34:56.188Z,13.07
2019-05-17T13:37:27.204Z,13.97
2019-05-17T13:39:58.605Z,14.17
2019-05-17T13:42:29.656Z,12.97
2019-05-17T13:45:01.351Z,13.67
2019-05-17T13:47:32.524Z,12.53
2019-05-17T13:50:03.562Z,13.20
2019-05-17T13:52:34.865Z,13.43
2019-05-17T13:55:07.498Z,13.27
2019-05-17T13:57:38.756Z,12.50
2019-05-17T14:00:10.442Z,12.47
2019-05-17T14:02:41.429Z,12.37
2019-05-17T14:05:12.665Z,12.10
2019-05-17T14:07:43.769Z,12.03
2019-05-17T14:10:26.799Z,10.93
2019-05-17T14:12:48.637Z,12.70
2019-05-17T14:15:19.843Z,12.57
2019-05-17T14:17:51.256Z,12.40
2019-05-17T14:20:22.337Z,13.07
2019-05-17T14:22:53.420Z,11.77
2019-05-17T14:25:24.483Z,11.97
2019-05-17T14:27:55.531Z,12.13
2019-05-17T14:30:30.538Z,12.13
2019-05-17T14:33:02.674Z,12.40
2019-05-17T14:35:33.794Z,12.43
2019-05-17T14:38:04.828Z,12.37
2019-05-17T14:41:04.934Z,12.23
2019-05-17T14:43:08.881Z,12.10
2019-05-17T14:45:39.955Z,11.07
2019-05-17T14:48:11.418Z,11.40
2019-05-17T14:50:42.514Z,11.20
2019-05-17T14:53:13.653Z,11.27
2019-05-17T14:55:45.105Z,11.43
2019-05-17T14:58:16.218Z,11.40
2019-05-17T15:00:48.250Z,11.50
2019-05-17T15:03:20.109Z,11.03
2019-05-17T15:05:51.786Z,11.27
2019-05-17T15:08:23.276Z,10.70
2019-05-17T15:10:54.254Z,11.10
2019-05-17T15:13:25.387Z,11.47
2019-05-17T15:15:56.630Z,11.43
2019-05-17T15:18:27.613Z,11.10
2019-05-17T15:20:58.634Z,11.63
2019-05-17T15:23:29.664Z,11.00
2019-05-17T15:26:00.690Z,10.83
2019-05-17T15:28:32.077Z,11.30
2019-05-17T15:31:03.821Z,11.03
2019-05-17T15:33:35.148Z,10.90
2019-05-17T15:36:06.252Z,11.20
2019-05-17T15:38:37.975Z,11.83
2019-05-17T15:41:09.096Z,11.60
2019-05-17T15:43:40.140Z,12.07
2019-05-17T15:46:11.228Z,11.57
2019-05-17T15:48:42.508Z,11.10
2019-05-17T15:51:13.597Z,11.83
2019-05-17T15:53:44.572Z,11.53
2019-05-17T15:56:15.588Z,11.93
2019-05-17T15:58:46.578Z,12.30
2019-05-17T16:01:17.716Z,11.80
2019-05-17T16:03:48.728Z,12.33
2019-05-17T16:06:19.710Z,11.57
2019-05-17T16:08:50.706Z,12.37
2019-05-17T16:11:21.769Z,11.70
2019-05-17T16:13:53.230Z,11.53
2019-05-17T16:16:24.216Z,12.30
2019-05-17T16:18:55.599Z,11.40
2019-05-17T16:21:26.623Z,11.07
2019-05-17T16:23:57.704Z,11.47
2019-05-17T16:26:28.756Z,11.77
2019-05-17T16:29:00.190Z,11.87
2019-05-17T16:31:31.303Z,11.10
2019-05-17T16:34:02.761Z,11.83
2019-05-17T16:36:34.019Z,12.23
2019-05-17T16:39:08.462Z,12.20
2019-05-17T16:41:40.037Z,11.30
2019-05-17T16:44:11.012Z,11.73
2019-05-17T16:46:42.067Z,12.20
2019-05-17T16:49:13.084Z,12.57
2019-05-17T16:51:44.480Z,12.43
2019-05-17T16:54:15.739Z,12.93
2019-05-17T16:56:47.157Z,12.07
2019-05-17T16:59:18.218Z,14.35
2019-05-17T17:01:49.185Z,12.47
2019-05-17T17:04:20.270Z,11.90
2019-05-17T17:06:51.815Z,11.93
2019-05-17T17:09:22.876Z,13.70
2019-05-17T17:11:54.117Z,12.87
2019-05-17T17:14:25.427Z,12.90
2019-05-17T17:16:57.128Z,11.43
2019-05-17T17:19:28.557Z,12.13
2019-05-17T17:21:59.724Z,11.37
2019-05-17T17:24:30.873Z,12.07
2019-05-17T17:27:01.973Z,13.63
2019-05-17T17:29:33.659Z,13.03
2019-05-17T17:32:04.689Z,12.47
2019-05-17T17:34:35.682Z,12.60
2019-05-17T17:37:07.688Z,11.67
2019-05-17T17:39:38.828Z,12.43
2019-05-17T17:42:09.872Z,11.90
2019-05-17T17:44:40.922Z,12.53
2019-05-17T17:47:12.263Z,11.07
2019-05-17T17:49:43.303Z,12.57
2019-05-17T17:52:14.603Z,11.87
2019-05-17T17:54:45.638Z,12.50
2019-05-17T17:57:16.727Z,11.70
2019-05-17T17:59:48.100Z,12.13
2019-05-17T18:02:19.482Z,12.13
2019-05-17T18:04:50.540Z,12.30
2019-05-17T18:07:21.923Z,11.80
2019-05-17T18:09:52.953Z,12.00
2019-05-17T18:12:24.037Z,12.33
2019-05-17T18:14:55.082Z,12.23
2019-05-17T18:17:27.215Z,13.13
2019-05-17T18:19:58.634Z,13.33
2019-05-17T18:22:29.654Z,12.90
2019-05-17T18:25:00.634Z,13.37
2019-05-17T18:27:32.015Z,13.53
2019-05-17T18:30:03.165Z,12.97
2019-05-17T18:32:34.536Z,12.27
2019-05-17T18:35:05.758Z,12.37
2019-05-17T18:37:37.167Z,13.43
2019-05-17T18:40:09.126Z,14.37
2019-05-17T18:42:40.547Z,12.90
2019-05-17T18:45:12.365Z,13.50
2019-05-17T18:47:43.547Z,13.37
2019-05-17T18:50:15.194Z,13.63
2019-05-17T18:52:46.205Z,13.47
2019-05-17T18:55:17.421Z,14.13
2019-05-17T18:57:48.458Z,14.60
2019-05-17T19:00:19.805Z,15.17
2019-05-17T19:02:51.270Z,15.00
2019-05-17T19:05:22.322Z,14.70
2019-05-17T19:07:53.633Z,15.40
2019-05-17T19:10:24.803Z,16.03
2019-05-17T19:12:56.642Z,15.10
2019-05-17T19:15:28.010Z,15.33
2019-05-17T19:18:00.696Z,15.53
2019-05-17T19:20:31.820Z,15.73
2019-05-17T19:23:02.864Z,16.17
2019-05-17T19:25:34.911Z,15.60
2019-05-17T19:28:06.363Z,16.47
2019-05-17T19:30:37.689Z,15.50
2019-05-17T19:33:09.009Z,14.93
2019-05-17T19:35:40.204Z,18.55
2019-05-17T19:38:11.212Z,17.43
2019-05-17T19:40:42.207Z,16.20
2019-05-17T19:43:14.293Z,16.57
2019-05-17T19:45:46.437Z,16.17
2019-05-17T19:48:19.780Z,16.33
2019-05-17T19:50:50.239Z,18.57
2019-05-17T19:53:21.222Z,16.73
2019-05-17T19:55:52.338Z,16.00
2019-05-17T19:58:23.379Z,14.93
2019-05-17T20:00:54.468Z,15.63
2019-05-17T20:03:25.655Z,17.17
2019-05-17T20:05:57.471Z,15.77
2019-05-17T20:08:28.563Z,15.37
2019-05-17T20:10:59.613Z,15.20
2019-05-17T20:13:31.037Z,15.63
2019-05-17T20:16:02.158Z,15.13
2019-05-17T20:18:33.686Z,16.07
2019-05-17T20:21:04.730Z,15.27
2019-05-17T20:23:36.179Z,14.90
2019-05-17T20:26:07.636Z,14.90
2019-05-17T20:28:38.652Z,15.53
2019-05-17T20:31:10.073Z,15.63
2019-05-17T20:33:41.179Z,15.43
2019-05-17T20:36:12.318Z,15.70
2019-05-17T20:38:43.351Z,16.37
2019-05-17T20:41:14.314Z,17.23
2019-05-17T20:43:45.743Z,21.93
2019-05-17T20:46:17.094Z,21.80
2019-05-17T20:48:48.096Z,19.43
2019-05-17T20:51:19.559Z,18.77
2019-05-17T20:53:50.694Z,19.03
2019-05-17T20:56:32.353Z,18.60
2019-05-17T20:58:54.595Z,18.97
2019-05-17T21:01:26.062Z,19.57
2019-05-17T21:03:57.788Z,19.90
2019-05-17T21:06:28.823Z,17.33
2019-05-17T21:08:59.873Z,21.10
2019-05-17T21:11:32.471Z,18.43
2019-05-17T21:14:03.527Z,17.20
2019-05-17T21:16:34.873Z,17.20
2019-05-17T21:19:06.039Z,16.90
2019-05-17T21:21:37.157Z,16.43
2019-05-17T21:24:09.251Z,18.27
2019-05-17T21:26:40.295Z,17.40
2019-05-17T21:29:11.407Z,18.40
2019-05-17T21:31:42.872Z,18.40
2019-05-17T21:34:13.989Z,16.90
2019-05-17T21:36:45.043Z,17.17
2019-05-17T21:39:16.142Z,17.40
2019-05-17T21:41:47.172Z,17.40
2019-05-17T21:44:18.615Z,16.80
2019-05-17T21:47:03.628Z,17.00
2019-05-17T21:49:23.493Z,17.47
2019-05-17T21:51:54.567Z,18.37
2019-05-17T21:54:26.254Z,17.50
2019-05-17T21:56:57.787Z,17.73
2019-05-17T21:59:28.935Z,17.20
2019-05-17T22:02:00.276Z,17.83
2019-05-17T22:04:31.895Z,18.75
2019-05-17T22:07:03.046Z,18.07
2019-05-17T22:09:34.614Z,18.00
2019-05-17T22:12:08.940Z,18.03
2019-05-17T22:14:40.046Z,19.63
2019-05-17T22:17:11.361Z,18.10
2019-05-17T22:19:43.682Z,17.00
2019-05-17T22:22:14.747Z,17.97
2019-05-17T22:24:47.210Z,17.13
2019-05-17T22:27:19.114Z,17.70
2019-05-17T22:29:50.648Z,17.53
2019-05-17T22:32:21.755Z,17.90
2019-05-17T22:34:53.186Z,18.13
2019-05-17T22:37:24.479Z,17.50
2019-05-17T22:39:55.846Z,17.80
2019-05-17T22:42:26.909Z,17.80
2019-05-17T22:44:58.083Z,18.40
2019-05-17T22:47:29.532Z,17.53
2019-05-17T22:50:00.558Z,18.20
2019-05-17T22:52:31.948Z,18.03
2019-05-17T22:55:03.314Z,18.63
2019-05-17T22:57:34.386Z,17.37
2019-05-17T23:00:05.828Z,18.17
2019-05-17T23:02:38.437Z,17.47
2019-05-17T23:05:09.408Z,19.03
2019-05-17T23:07:40.500Z,18.13
2019-05-17T23:10:12.144Z,18.03
2019-05-17T23:12:43.597Z,18.20
2019-05-17T23:15:14.735Z,19.30
2019-05-17T23:17:45.837Z,17.53
2019-05-17T23:20:18.786Z,18.47
2019-05-17T23:22:50.110Z,20.20
2019-05-17T23:25:21.547Z,17.77
2019-05-17T23:27:52.689Z,20.10
2019-05-17T23:30:24.579Z,18.37
2019-05-17T23:32:56.041Z,18.40
2019-05-17T23:35:27.483Z,18.40
2019-05-17T23:37:58.867Z,18.50
2019-05-17T23:40:29.876Z,19.07
2019-05-17T23:43:01.020Z,17.47
2019-05-17T23:45:32.433Z,19.13
2019-05-17T23:48:03.489Z,19.60
2019-05-17T23:50:35.358Z,19.27
2019-05-17T23:53:06.511Z,19.13
2019-05-17T23:55:37.615Z,19.20
2019-05-17T23:58:08.661Z,19.70
